Time;durP1;ratioP1;P1;durP2;ratioP2;P2;SDS_P1;SDS_P2;PMS_P1;PMS_P2;Temp;Humidity;BMP_temperature;BMP_pressure;BME280_temperature;BME280_humidity;BME280_pressure;Samples;Min_cycle;Max_cycle;Signal;HPM_P1;HPM_P2
2022/09/12 00:05:25;;;;;;;7.9;12.5;;;;;;;12.5;93.6;98570;;;;
2022/09/12 00:15:25;;;;;;;8.4;11.8;;;;;;;12.6;93.4;98570;;;;
2022/09/12 00:26:25;;;;;;;8.4;11.8;;;;;;;12.7;93.3;98570;;;;
2022/09/12 00:36:25;;;;;;;8.4;11.8;;;;;;;12.8;93.3;98580;;;;
2022/09/12 00:47:25;;;;;;;10.6;15.5;;;;;;;12.8;92.7;98580;;;;
2022/09/12 00:57:25;;;;;;;10.6;15.5;;;;;;;12.5;92.6;98580;;;;
2022/09/12 01:08:25;;;;;;;10.6;15.5;;;;;;;12.4;92.8;98590;;;;
2022/09/12 01:19:25;;;;;;;10.2;13.5;;;;;;;12.4;93.5;98590;;;;
2022/09/12 01:29:25;;;;;;;10.2;13.5;;;;;;;12.3;93.4;98590;;;;
2022/09/12 01:39:25;;;;;;;10.2;13.5;;;;;;;12.3;93.6;98590;;;;
2022/09/12 01:49:25;;;;;;;11.3;13.8;;;;;;;12.2;93.3;98590;;;;
2022/09/12 01:59:25;;;;;;;11.3;13.8;;;;;;;12.1;93.1;98600;;;;
2022/09/12 02:10:25;;;;;;;10.8;13.7;;;;;;;12.1;93.2;98600;;;;
2022/09/12 02:20:25;;;;;;;10.8;13.7;;;;;;;12.1;93.4;98600;;;;
2022/09/12 02:31:25;;;;;;;10.8;13.7;;;;;;;11.9;93.4;98590;;;;
2022/09/12 02:42:25;;;;;;;12.9;17;;;;;;;11.9;93.8;98580;;;;
2022/09/12 02:52:25;;;;;;;12.9;17;;;;;;;11.9;94.1;98580;;;;
2022/09/12 03:02:26;;;;;;;12.9;17;;;;;;;11.9;94.3;98580;;;;
2022/09/12 03:13:25;;;;;;;13.4;16.4;;;;;;;11.9;94.4;98590;;;;
2022/09/12 03:23:25;;;;;;;13.4;16.4;;;;;;;11.8;94.5;98590;;;;
2022/09/12 03:34:25;;;;;;;13.4;16.4;;;;;;;11.7;94.4;98600;;;;
2022/09/12 03:44:25;;;;;;;13;18.4;;;;;;;11.7;94.3;98600;;;;
2022/09/12 03:55:25;;;;;;;13;18.4;;;;;;;11.6;94.4;98610;;;;
2022/09/12 04:05:25;;;;;;;13;18.4;;;;;;;11.6;94.3;98620;;;;
2022/09/12 04:15:25;;;;;;;11.6;16.3;;;;;;;11.5;94.3;98620;;;;
2022/09/12 04:26:28;;;;;;;11.6;16.3;;;;;;;11.5;94.3;98630;;;;
2022/09/12 04:36:25;;;;;;;11.6;16.3;;;;;;;11.5;94.4;98630;;;;
2022/09/12 04:46:25;;;;;;;13.9;17.3;;;;;;;11.5;94.1;98640;;;;
2022/09/12 04:56:25;;;;;;;13.9;17.3;;;;;;;11.8;94.2;98640;;;;
2022/09/12 05:07:25;;;;;;;13.9;17.3;;;;;;;12;94;98650;;;;
2022/09/12 05:18:25;;;;;;;14;17.2;;;;;;;12;92.1;98660;;;;
2022/09/12 05:28:25;;;;;;;14;17.2;;;;;;;12;92.1;98670;;;;
2022/09/12 05:38:27;;;;;;;14;17.2;;;;;;;12;91.7;98680;;;;
2022/09/12 05:49:25;;;;;;;13;18.8;;;;;;;12;91.7;98680;;;;
2022/09/12 06:00:25;;;;;;;13;18.8;;;;;;;12.1;91.1;98690;;;;
2022/09/12 06:10:25;;;;;;;13.4;17.9;;;;;;;12.2;90.3;98690;;;;
2022/09/12 06:21:25;;;;;;;13.4;17.9;;;;;;;12.4;88.3;98700;;;;
2022/09/12 06:31:25;;;;;;;13.4;17.9;;;;;;;12.7;88.5;98710;;;;
2022/09/12 06:41:25;;;;;;;11.1;14.9;;;;;;;12.8;86;98710;;;;
2022/09/12 06:52:25;;;;;;;11.1;14.9;;;;;;;13;85.2;98700;;;;
2022/09/12 07:02:25;;;;;;;11.1;14.9;;;;;;;13.3;84.3;98720;;;;
2022/09/12 07:13:25;;;;;;;8;10.6;;;;;;;13.5;84;98710;;;;
2022/09/12 07:24:25;;;;;;;8;10.6;;;;;;;13.8;82.9;98720;;;;
2022/09/12 07:35:25;;;;;;;8;10.6;;;;;;;13.8;80.8;98740;;;;
2022/09/12 07:45:25;;;;;;;6.9;13.2;;;;;;;13.9;78.7;98740;;;;
2022/09/12 07:55:25;;;;;;;6.9;13.2;;;;;;;13.9;74.7;98740;;;;
2022/09/12 08:05:25;;;;;;;6.9;13.2;;;;;;;14.4;76.3;98740;;;;
2022/09/12 08:16:25;;;;;;;5;7.9;;;;;;;14.4;73.5;98750;;;;
2022/09/12 08:27:25;;;;;;;5;7.9;;;;;;;14.3;71.3;98750;;;;
2022/09/12 08:38:25;;;;;;;5;7.9;;;;;;;14.9;69.6;98750;;;;
2022/09/12 08:49:26;;;;;;;3;5.9;;;;;;;14.9;68.7;98740;;;;
2022/09/12 08:59:25;;;;;;;3;5.9;;;;;;;15.1;67.5;98740;;;;
2022/09/12 09:10:25;;;;;;;3.2;9.1;;;;;;;15.4;63.7;98730;;;;
2022/09/12 09:21:25;;;;;;;3.2;9.1;;;;;;;15.7;64.2;98730;;;;
2022/09/12 09:32:25;;;;;;;3.2;9.1;;;;;;;15.8;62.6;98740;;;;
2022/09/12 09:42:25;;;;;;;3.1;6.1;;;;;;;15.9;63.9;98740;;;;
2022/09/12 09:53:25;;;;;;;3.1;6.1;;;;;;;16.4;59.4;98720;;;;
2022/09/12 10:04:25;;;;;;;3.1;6.1;;;;;;;16.4;61;98720;;;;
2022/09/12 10:14:25;;;;;;;3.2;5.8;;;;;;;16.7;57.5;98720;;;;
2022/09/12 10:25:26;;;;;;;3.2;5.8;;;;;;;16.6;57.5;98720;;;;
2022/09/12 10:35:26;;;;;;;3.2;5.8;;;;;;;17.1;56.9;98720;;;;
2022/09/12 10:46:25;;;;;;;2.9;8.7;;;;;;;17;52.9;98730;;;;
2022/09/12 10:56:25;;;;;;;2.9;8.7;;;;;;;17.3;55.5;98720;;;;
2022/09/12 11:07:25;;;;;;;2.9;8.7;;;;;;;17.5;55.2;98710;;;;
2022/09/12 11:17:25;;;;;;;2.3;4.9;;;;;;;17.4;53;98710;;;;
2022/09/12 11:27:25;;;;;;;2.3;4.9;;;;;;;17.6;53.7;98710;;;;
2022/09/12 11:38:25;;;;;;;2.3;4.9;;;;;;;17.9;53.3;98710;;;;
2022/09/12 11:49:25;;;;;;;2.3;6.2;;;;;;;18.1;54.3;98710;;;;
2022/09/12 11:59:25;;;;;;;2.3;6.2;;;;;;;17.9;49.8;98710;;;;
2022/09/12 12:09:25;;;;;;;2.3;6.2;;;;;;;18.4;52.7;98710;;;;
2022/09/12 12:20:27;;;;;;;2.4;4.7;;;;;;;18.5;49.5;98700;;;;
2022/09/12 12:30:25;;;;;;;2.4;4.7;;;;;;;18.5;49.4;98700;;;;
2022/09/12 12:41:25;;;;;;;1.9;4.9;;;;;;;18.6;50.1;98710;;;;
2022/09/12 12:52:25;;;;;;;1.9;4.9;;;;;;;18.3;49.6;98700;;;;
2022/09/12 13:02:25;;;;;;;1.9;4.9;;;;;;;18.2;50.6;98700;;;;
2022/09/12 13:13:25;;;;;;;1.8;4.3;;;;;;;18.1;49.9;98700;;;;
2022/09/12 13:23:26;;;;;;;1.8;4.3;;;;;;;18.6;50.2;98690;;;;
2022/09/12 13:33:25;;;;;;;1.8;4.3;;;;;;;18.8;48.2;98680;;;;
2022/09/12 13:44:25;;;;;;;2;4.9;;;;;;;18.9;47.9;98680;;;;
2022/09/12 13:54:26;;;;;;;2;4.9;;;;;;;18.4;48.7;98670;;;;
2022/09/12 14:05:25;;;;;;;2;4.9;;;;;;;18.1;50;98670;;;;
2022/09/12 14:16:27;;;;;;;2.2;4.5;;;;;;;18.6;49.1;98670;;;;
2022/09/12 14:26:26;;;;;;;2.2;4.5;;;;;;;18.8;47.8;98670;;;;
2022/09/12 14:36:25;;;;;;;2.2;4.5;;;;;;;18.8;47.4;98670;;;;
2022/09/12 14:46:25;;;;;;;2;3.9;;;;;;;18.9;47.2;98670;;;;
2022/09/12 14:56:25;;;;;;;2;3.9;;;;;;;19.1;48.4;98670;;;;
2022/09/12 15:06:25;;;;;;;2;3.9;;;;;;;19.3;47.7;98670;;;;
2022/09/12 15:17:25;;;;;;;2.1;5.3;;;;;;;20.3;45.8;98660;;;;
2022/09/12 15:27:25;;;;;;;2.1;5.3;;;;;;;22.1;41.8;98660;;;;
2022/09/12 15:37:25;;;;;;;2.1;5.3;;;;;;;23;40.6;98660;;;;
2022/09/12 15:48:25;;;;;;;1.7;5;;;;;;;23.1;42.6;98670;;;;
2022/09/12 15:59:25;;;;;;;1.7;5;;;;;;;24.4;41.6;98650;;;;
2022/09/12 16:10:25;;;;;;;2;4.7;;;;;;;23.4;42;98660;;;;
2022/09/12 16:20:26;;;;;;;2;4.7;;;;;;;22.9;44.3;98670;;;;
2022/09/12 16:31:25;;;;;;;2;4.7;;;;;;;22;46;98670;;;;
2022/09/12 16:42:25;;;;;;;6.9;11.7;;;;;;;20;49.3;98670;;;;
2022/09/12 16:53:25;;;;;;;6.9;11.7;;;;;;;18.9;54.4;98690;;;;
2022/09/12 17:03:26;;;;;;;6.9;11.7;;;;;;;17.9;57.3;98700;;;;
2022/09/12 17:14:25;;;;;;;3.6;7.8;;;;;;;17.1;58.7;98690;;;;
2022/09/12 17:25:26;;;;;;;3.6;7.8;;;;;;;16.4;59.5;98710;;;;
2022/09/12 17:36:25;;;;;;;3.6;7.8;;;;;;;15.7;61.5;98710;;;;
2022/09/12 17:47:25;;;;;;;3.3;7.6;;;;;;;15.1;63.1;98720;;;;
2022/09/12 17:57:25;;;;;;;3.3;7.6;;;;;;;14.5;66.7;98730;;;;
2022/09/12 18:07:25;;;;;;;3.3;7.6;;;;;;;14.1;67.2;98740;;;;
2022/09/12 18:18:25;;;;;;;6.2;10.4;;;;;;;13.9;69.6;98750;;;;
2022/09/12 18:28:25;;;;;;;6.2;10.4;;;;;;;13.8;71.9;98750;;;;
2022/09/12 18:39:25;;;;;;;6.2;10.4;;;;;;;13.6;73.6;98750;;;;
2022/09/12 18:50:25;;;;;;;11.5;16.6;;;;;;;13.5;75.5;98770;;;;
2022/09/12 19:00:25;;;;;;;11.5;16.6;;;;;;;13.5;75;98760;;;;
2022/09/12 19:10:25;;;;;;;6.1;11;;;;;;;13.6;76.1;98760;;;;
2022/09/12 19:20:26;;;;;;;6.1;11;;;;;;;13.6;76.4;98760;;;;
2022/09/12 19:31:25;;;;;;;6.1;11;;;;;;;13.6;76.4;98750;;;;
2022/09/12 19:41:25;;;;;;;7;9.9;;;;;;;13.4;77;98740;;;;
2022/09/12 19:51:25;;;;;;;7;9.9;;;;;;;13.4;76.3;98750;;;;
2022/09/12 20:02:26;;;;;;;7;9.9;;;;;;;13.2;76.7;98740;;;;
2022/09/12 20:13:25;;;;;;;5.4;7.8;;;;;;;13;79.2;98730;;;;
2022/09/12 20:23:25;;;;;;;5.4;7.8;;;;;;;12.9;79.3;98730;;;;
2022/09/12 20:34:25;;;;;;;5.4;7.8;;;;;;;12.7;78.7;98720;;;;
2022/09/12 20:44:26;;;;;;;5.4;11;;;;;;;12.4;79.9;98720;;;;
2022/09/12 20:55:25;;;;;;;;;;;;;;;12.3;81.7;98720;;;;
2022/09/12 21:05:25;;;;;;;5.4;11;;;;;;;12.2;82.4;98720;;;;
2022/09/12 21:16:25;;;;;;;6.5;9.4;;;;;;;12.1;83.3;98720;;;;
2022/09/12 21:26:25;;;;;;;6.5;9.4;;;;;;;12;83.7;98720;;;;
2022/09/12 21:37:25;;;;;;;6.5;9.4;;;;;;;11.9;84.8;98710;;;;
2022/09/12 21:48:25;;;;;;;7.6;10.6;;;;;;;11.8;84.3;98710;;;;
2022/09/12 21:59:25;;;;;;;7.6;10.6;;;;;;;11.7;83.5;98710;;;;
2022/09/12 22:09:25;;;;;;;7.6;10.6;;;;;;;11.5;83.2;98710;;;;
2022/09/12 22:19:25;;;;;;;6.2;9.1;;;;;;;11.3;83.1;98700;;;;
2022/09/12 22:30:26;;;;;;;6.2;9.1;;;;;;;11.2;83.5;98700;;;;
2022/09/12 22:40:25;;;;;;;7.2;10.8;;;;;;;11;83.7;98690;;;;
2022/09/12 22:51:25;;;;;;;7.2;10.8;;;;;;;10.8;83.7;98680;;;;
2022/09/12 23:01:26;;;;;;;7.2;10.8;;;;;;;10.7;84.3;98680;;;;
2022/09/12 23:11:26;;;;;;;6.5;9;;;;;;;10.6;84.1;98680;;;;
2022/09/12 23:22:25;;;;;;;6.5;9;;;;;;;10.4;83.8;98670;;;;
2022/09/12 23:32:26;;;;;;;6.5;9;;;;;;;10.3;84.6;98670;;;;
2022/09/12 23:43:25;;;;;;;6.8;9.7;;;;;;;10.2;85;98690;;;;
2022/09/12 23:54:25;;;;;;;6.8;9.7;;;;;;;10.1;85;98680;;;;
